sensor_id;sensor_type;location;lat;lon;timestamp;P1;durP1;ratioP1;P2;durP2;ratioP2
28934;SDS011;16044;52.726;-2.108;2024-03-23T00:54:40;11.07;;;1.55;;
28934;SDS011;16044;52.726;-2.108;2024-03-23T00:57:07;11.80;;;2.13;;
28934;SDS011;16044;52.726;-2.108;2024-03-23T00:59:36;18.20;;;2.28;;
28934;SDS011;16044;52.726;-2.108;2024-03-23T01:02:03;15.20;;;1.92;;
28934;SDS011;16044;52.726;-2.108;2024-03-23T01:04:29;18.83;;;2.17;;
28934;SDS011;16044;52.726;-2.108;2024-03-23T01:06:56;14.98;;;2.03;;
28934;SDS011;16044;52.726;-2.108;2024-03-23T01:09:22;13.73;;;1.80;;
28934;SDS011;16044;52.726;-2.108;2024-03-23T01:11:49;15.55;;;1.73;;
28934;SDS011;16044;52.726;-2.108;2024-03-23T01:14:15;13.13;;;1.80;;
28934;SDS011;16044;52.726;-2.108;2024-03-23T01:16:44;12.00;;;1.67;;
28934;SDS011;16044;52.726;-2.108;2024-03-23T01:19:11;9.27;;;1.40;;
28934;SDS011;16044;52.726;-2.108;2024-03-23T01:21:37;19.67;;;2.30;;
28934;SDS011;16044;52.726;-2.108;2024-03-23T01:24:04;13.13;;;1.90;;
28934;SDS011;16044;52.726;-2.108;2024-03-23T01:26:31;16.40;;;1.85;;
28934;SDS011;16044;52.726;-2.108;2024-03-23T01:28:57;19.08;;;2.22;;
28934;SDS011;16044;52.726;-2.108;2024-03-23T01:31:23;15.98;;;2.08;;
28934;SDS011;16044;52.726;-2.108;2024-03-23T01:33:53;8.25;;;1.50;;
28934;SDS011;16044;52.726;-2.108;2024-03-23T01:36:19;16.35;;;2.47;;
28934;SDS011;16044;52.726;-2.108;2024-03-23T01:38:46;16.95;;;2.17;;
28934;SDS011;16044;52.726;-2.108;2024-03-23T01:41:12;13.38;;;1.70;;
28934;SDS011;16044;52.726;-2.108;2024-03-23T01:43:39;18.20;;;2.30;;
28934;SDS011;16044;52.726;-2.108;2024-03-23T01:46:05;18.80;;;2.10;;
28934;SDS011;16044;52.726;-2.108;2024-03-23T01:48:32;19.08;;;2.35;;
28934;SDS011;16044;52.726;-2.108;2024-03-23T01:51:01;15.25;;;2.10;;
28934;SDS011;16044;52.726;-2.108;2024-03-23T01:53:29;15.32;;;2.40;;
28934;SDS011;16044;52.726;-2.108;2024-03-23T01:55:56;17.08;;;2.40;;
28934;SDS011;16044;52.726;-2.108;2024-03-23T01:58:23;15.30;;;1.80;;
28934;SDS011;16044;52.726;-2.108;2024-03-23T02:00:49;15.50;;;1.88;;
28934;SDS011;16044;52.726;-2.108;2024-03-23T02:03:22;14.48;;;2.13;;
28934;SDS011;16044;52.726;-2.108;2024-03-23T02:05:49;12.27;;;1.95;;
28934;SDS011;16044;52.726;-2.108;2024-03-23T02:08:20;10.73;;;1.70;;
28934;SDS011;16044;52.726;-2.108;2024-03-23T02:10:47;16.80;;;1.80;;
28934;SDS011;16044;52.726;-2.108;2024-03-23T02:13:14;12.13;;;2.10;;
28934;SDS011;16044;52.726;-2.108;2024-03-23T02:15:41;16.58;;;1.90;;
28934;SDS011;16044;52.726;-2.108;2024-03-23T02:18:08;14.50;;;2.22;;
28934;SDS011;16044;52.726;-2.108;2024-03-23T02:20:34;14.48;;;1.92;;
28934;SDS011;16044;52.726;-2.108;2024-03-23T02:23:03;18.20;;;1.90;;
28934;SDS011;16044;52.726;-2.108;2024-03-23T02:25:31;20.80;;;2.28;;
28934;SDS011;16044;52.726;-2.108;2024-03-23T02:27:58;17.65;;;2.42;;
28934;SDS011;16044;52.726;-2.108;2024-03-23T02:30:25;13.45;;;1.85;;
28934;SDS011;16044;52.726;-2.108;2024-03-23T02:32:51;11.93;;;2.13;;
28934;SDS011;16044;52.726;-2.108;2024-03-23T02:35:18;13.40;;;1.42;;
28934;SDS011;16044;52.726;-2.108;2024-03-23T02:37:46;12.40;;;1.95;;
28934;SDS011;16044;52.726;-2.108;2024-03-23T02:40:15;16.42;;;1.85;;
28934;SDS011;16044;52.726;-2.108;2024-03-23T02:42:42;13.18;;;2.30;;
28934;SDS011;16044;52.726;-2.108;2024-03-23T02:45:09;12.27;;;1.55;;
28934;SDS011;16044;52.726;-2.108;2024-03-23T02:47:35;15.18;;;2.05;;
28934;SDS011;16044;52.726;-2.108;2024-03-23T02:50:02;19.42;;;2.70;;
28934;SDS011;16044;52.726;-2.108;2024-03-23T02:52:30;19.60;;;2.50;;
28934;SDS011;16044;52.726;-2.108;2024-03-23T02:54:56;21.10;;;2.83;;
28934;SDS011;16044;52.726;-2.108;2024-03-23T02:57:25;17.45;;;2.17;;
28934;SDS011;16044;52.726;-2.108;2024-03-23T02:59:52;17.77;;;2.00;;
28934;SDS011;16044;52.726;-2.108;2024-03-23T03:02:18;19.80;;;2.40;;
28934;SDS011;16044;52.726;-2.108;2024-03-23T03:04:46;24.13;;;2.65;;
28934;SDS011;16044;52.726;-2.108;2024-03-23T03:07:13;16.55;;;2.40;;
28934;SDS011;16044;52.726;-2.108;2024-03-23T03:09:39;21.77;;;1.92;;
28934;SDS011;16044;52.726;-2.108;2024-03-23T03:12:06;26.38;;;3.08;;
28934;SDS011;16044;52.726;-2.108;2024-03-23T03:14:35;17.33;;;1.90;;
28934;SDS011;16044;52.726;-2.108;2024-03-23T03:17:02;14.95;;;2.00;;
28934;SDS011;16044;52.726;-2.108;2024-03-23T03:19:29;17.90;;;2.22;;
28934;SDS011;16044;52.726;-2.108;2024-03-23T03:21:55;18.17;;;2.33;;
28934;SDS011;16044;52.726;-2.108;2024-03-23T03:24:22;18.15;;;2.03;;
28934;SDS011;16044;52.726;-2.108;2024-03-23T03:26:48;18.17;;;2.28;;
28934;SDS011;16044;52.726;-2.108;2024-03-23T03:29:15;17.38;;;2.20;;
28934;SDS011;16044;52.726;-2.108;2024-03-23T03:31:44;20.83;;;2.20;;
28934;SDS011;16044;52.726;-2.108;2024-03-23T03:34:11;19.60;;;2.63;;
28934;SDS011;16044;52.726;-2.108;2024-03-23T03:36:37;19.60;;;2.25;;
28934;SDS011;16044;52.726;-2.108;2024-03-23T03:39:03;20.33;;;2.35;;
28934;SDS011;16044;52.726;-2.108;2024-03-23T03:41:31;15.80;;;2.50;;
28934;SDS011;16044;52.726;-2.108;2024-03-23T03:43:57;23.55;;;2.20;;
28934;SDS011;16044;52.726;-2.108;2024-03-23T03:46:25;19.95;;;2.63;;
28934;SDS011;16044;52.726;-2.108;2024-03-23T03:48:54;20.90;;;2.38;;
28934;SDS011;16044;52.726;-2.108;2024-03-23T03:51:20;22.38;;;2.50;;
28934;SDS011;16044;52.726;-2.108;2024-03-23T03:53:47;18.73;;;2.28;;
28934;SDS011;16044;52.726;-2.108;2024-03-23T03:56:13;15.88;;;2.47;;
28934;SDS011;16044;52.726;-2.108;2024-03-23T03:58:40;17.42;;;2.30;;
28934;SDS011;16044;52.726;-2.108;2024-03-23T04:01:06;13.73;;;1.98;;
28934;SDS011;16044;52.726;-2.108;2024-03-23T04:03:33;12.73;;;1.85;;
28934;SDS011;16044;52.726;-2.108;2024-03-23T04:06:02;22.35;;;1.67;;
28934;SDS011;16044;52.726;-2.108;2024-03-23T04:08:29;17.83;;;2.10;;
28934;SDS011;16044;52.726;-2.108;2024-03-23T04:10:56;20.60;;;2.30;;
28934;SDS011;16044;52.726;-2.108;2024-03-23T04:13:22;16.00;;;2.35;;
28934;SDS011;16044;52.726;-2.108;2024-03-23T04:15:48;21.02;;;2.30;;
28934;SDS011;16044;52.726;-2.108;2024-03-23T04:18:19;18.63;;;2.20;;
28934;SDS011;16044;52.726;-2.108;2024-03-23T04:20:46;22.17;;;2.55;;
28934;SDS011;16044;52.726;-2.108;2024-03-23T04:23:15;19.05;;;2.28;;
28934;SDS011;16044;52.726;-2.108;2024-03-23T04:25:41;15.75;;;2.25;;
28934;SDS011;16044;52.726;-2.108;2024-03-23T04:28:08;17.92;;;2.53;;
28934;SDS011;16044;52.726;-2.108;2024-03-23T04:30:34;17.80;;;2.42;;
28934;SDS011;16044;52.726;-2.108;2024-03-23T04:33:01;17.08;;;1.90;;
28934;SDS011;16044;52.726;-2.108;2024-03-23T04:35:27;17.55;;;2.08;;
28934;SDS011;16044;52.726;-2.108;2024-03-23T04:37:54;18.10;;;2.33;;
28934;SDS011;16044;52.726;-2.108;2024-03-23T04:40:23;17.88;;;2.33;;
28934;SDS011;16044;52.726;-2.108;2024-03-23T04:42:50;16.25;;;2.08;;
28934;SDS011;16044;52.726;-2.108;2024-03-23T04:45:16;17.48;;;2.13;;
28934;SDS011;16044;52.726;-2.108;2024-03-23T04:47:43;18.50;;;2.25;;
28934;SDS011;16044;52.726;-2.108;2024-03-23T04:50:10;21.25;;;2.10;;
28934;SDS011;16044;52.726;-2.108;2024-03-23T04:52:36;16.75;;;2.08;;
28934;SDS011;16044;52.726;-2.108;2024-03-23T04:55:03;16.60;;;1.67;;
28934;SDS011;16044;52.726;-2.108;2024-03-23T04:57:33;22.83;;;2.25;;
28934;SDS011;16044;52.726;-2.108;2024-03-23T04:59:59;19.73;;;2.03;;
28934;SDS011;16044;52.726;-2.108;2024-03-23T05:02:26;16.45;;;2.13;;
28934;SDS011;16044;52.726;-2.108;2024-03-23T05:04:53;18.90;;;2.40;;
28934;SDS011;16044;52.726;-2.108;2024-03-23T05:07:20;18.48;;;2.25;;
28934;SDS011;16044;52.726;-2.108;2024-03-23T05:09:46;13.95;;;2.03;;
28934;SDS011;16044;52.726;-2.108;2024-03-23T05:12:12;15.18;;;1.95;;
28934;SDS011;16044;52.726;-2.108;2024-03-23T05:14:42;17.65;;;1.73;;
28934;SDS011;16044;52.726;-2.108;2024-03-23T05:17:08;9.18;;;1.27;;
28934;SDS011;16044;52.726;-2.108;2024-03-23T05:19:34;15.88;;;2.10;;
28934;SDS011;16044;52.726;-2.108;2024-03-23T05:22:01;18.23;;;2.45;;
28934;SDS011;16044;52.726;-2.108;2024-03-23T05:24:27;12.20;;;1.70;;
28934;SDS011;16044;52.726;-2.108;2024-03-23T05:26:54;11.30;;;1.75;;
28934;SDS011;16044;52.726;-2.108;2024-03-23T05:29:20;16.45;;;1.77;;
28934;SDS011;16044;52.726;-2.108;2024-03-23T05:31:51;12.13;;;1.60;;
28934;SDS011;16044;52.726;-2.108;2024-03-23T05:34:17;10.52;;;2.05;;
28934;SDS011;16044;52.726;-2.108;2024-03-23T05:36:44;11.85;;;1.85;;
28934;SDS011;16044;52.726;-2.108;2024-03-23T05:39:10;13.85;;;1.80;;
28934;SDS011;16044;52.726;-2.108;2024-03-23T05:41:37;12.27;;;1.80;;
28934;SDS011;16044;52.726;-2.108;2024-03-23T05:44:03;11.45;;;2.03;;
28934;SDS011;16044;52.726;-2.108;2024-03-23T05:46:30;16.48;;;1.60;;
28934;SDS011;16044;52.726;-2.108;2024-03-23T05:49:00;12.15;;;1.60;;
28934;SDS011;16044;52.726;-2.108;2024-03-23T05:51:28;16.58;;;1.63;;
28934;SDS011;16044;52.726;-2.108;2024-03-23T05:53:54;12.77;;;1.73;;
28934;SDS011;16044;52.726;-2.108;2024-03-23T05:56:21;13.88;;;1.98;;
28934;SDS011;16044;52.726;-2.108;2024-03-23T05:58:47;16.38;;;2.05;;
28934;SDS011;16044;52.726;-2.108;2024-03-23T06:01:14;11.68;;;1.20;;
28934;SDS011;16044;52.726;-2.108;2024-03-23T06:03:40;14.75;;;1.55;;
28934;SDS011;16044;52.726;-2.108;2024-03-23T06:06:09;16.58;;;1.38;;
28934;SDS011;16044;52.726;-2.108;2024-03-23T06:08:36;8.95;;;1.60;;
28934;SDS011;16044;52.726;-2.108;2024-03-23T06:11:03;13.63;;;1.70;;
28934;SDS011;16044;52.726;-2.108;2024-03-23T06:13:30;14.52;;;1.63;;
28934;SDS011;16044;52.726;-2.108;2024-03-23T06:15:56;17.05;;;1.65;;
28934;SDS011;16044;52.726;-2.108;2024-03-23T06:18:23;10.80;;;1.50;;
28934;SDS011;16044;52.726;-2.108;2024-03-23T06:20:49;12.50;;;1.52;;
28934;SDS011;16044;52.726;-2.108;2024-03-23T06:23:18;12.45;;;1.90;;
28934;SDS011;16044;52.726;-2.108;2024-03-23T06:25:45;18.50;;;2.42;;
28934;SDS011;16044;52.726;-2.108;2024-03-23T06:28:12;10.70;;;1.58;;
28934;SDS011;16044;52.726;-2.108;2024-03-23T06:30:39;18.25;;;2.22;;
28934;SDS011;16044;52.726;-2.108;2024-03-23T06:33:05;13.98;;;1.75;;
28934;SDS011;16044;52.726;-2.108;2024-03-23T06:35:32;14.15;;;2.00;;
28934;SDS011;16044;52.726;-2.108;2024-03-23T06:37:58;15.35;;;1.70;;
28934;SDS011;16044;52.726;-2.108;2024-03-23T06:40:27;13.55;;;1.60;;
28934;SDS011;16044;52.726;-2.108;2024-03-23T06:42:54;13.98;;;1.75;;
28934;SDS011;16044;52.726;-2.108;2024-03-23T06:45:20;17.10;;;1.98;;
28934;SDS011;16044;52.726;-2.108;2024-03-23T06:47:47;21.20;;;2.13;;
28934;SDS011;16044;52.726;-2.108;2024-03-23T06:50:13;14.27;;;2.15;;
28934;SDS011;16044;52.726;-2.108;2024-03-23T06:52:40;14.82;;;1.50;;
28934;SDS011;16044;52.726;-2.108;2024-03-23T06:55:07;26.38;;;3.10;;
28934;SDS011;16044;52.726;-2.108;2024-03-23T06:57:36;12.00;;;2.05;;
28934;SDS011;16044;52.726;-2.108;2024-03-23T07:00:03;14.52;;;2.08;;
28934;SDS011;16044;52.726;-2.108;2024-03-23T07:02:31;13.73;;;1.67;;
28934;SDS011;16044;52.726;-2.108;2024-03-23T07:04:58;15.00;;;1.63;;
28934;SDS011;16044;52.726;-2.108;2024-03-23T07:07:24;13.20;;;1.50;;
28934;SDS011;16044;52.726;-2.108;2024-03-23T07:09:50;14.45;;;1.88;;
28934;SDS011;16044;52.726;-2.108;2024-03-23T07:12:17;17.40;;;2.03;;
28934;SDS011;16044;52.726;-2.108;2024-03-23T07:14:46;14.10;;;1.92;;
28934;SDS011;16044;52.726;-2.108;2024-03-23T07:17:13;13.48;;;1.73;;
28934;SDS011;16044;52.726;-2.108;2024-03-23T07:19:39;17.98;;;2.13;;
28934;SDS011;16044;52.726;-2.108;2024-03-23T07:22:06;15.43;;;1.88;;
28934;SDS011;16044;52.726;-2.108;2024-03-23T07:24:32;13.15;;;1.58;;
28934;SDS011;16044;52.726;-2.108;2024-03-23T07:26:59;11.80;;;1.35;;
28934;SDS011;16044;52.726;-2.108;2024-03-23T07:29:26;17.70;;;2.17;;
28934;SDS011;16044;52.726;-2.108;2024-03-23T07:31:55;16.02;;;1.88;;
28934;SDS011;16044;52.726;-2.108;2024-03-23T07:34:21;13.60;;;1.80;;
28934;SDS011;16044;52.726;-2.108;2024-03-23T07:36:48;17.90;;;1.90;;
28934;SDS011;16044;52.726;-2.108;2024-03-23T07:39:14;17.92;;;2.05;;
28934;SDS011;16044;52.726;-2.108;2024-03-23T07:41:41;19.50;;;2.33;;
28934;SDS011;16044;52.726;-2.108;2024-03-23T07:44:10;15.38;;;2.40;;
28934;SDS011;16044;52.726;-2.108;2024-03-23T07:46:37;14.93;;;1.63;;
28934;SDS011;16044;52.726;-2.108;2024-03-23T07:49:06;12.50;;;1.83;;
28934;SDS011;16044;52.726;-2.108;2024-03-23T07:51:33;16.13;;;1.58;;
28934;SDS011;16044;52.726;-2.108;2024-03-23T07:53:59;15.80;;;2.60;;
28934;SDS011;16044;52.726;-2.108;2024-03-23T07:56:26;14.45;;;2.25;;
28934;SDS011;16044;52.726;-2.108;2024-03-23T07:58:52;14.07;;;2.00;;
28934;SDS011;16044;52.726;-2.108;2024-03-23T08:01:18;13.52;;;1.70;;
28934;SDS011;16044;52.726;-2.108;2024-03-23T08:03:45;14.02;;;2.00;;
28934;SDS011;16044;52.726;-2.108;2024-03-23T08:06:15;14.25;;;2.10;;
28934;SDS011;16044;52.726;-2.108;2024-03-23T08:08:44;15.82;;;2.38;;
28934;SDS011;16044;52.726;-2.108;2024-03-23T08:11:11;12.80;;;1.77;;
28934;SDS011;16044;52.726;-2.108;2024-03-23T08:13:39;20.27;;;2.55;;
28934;SDS011;16044;52.726;-2.108;2024-03-23T08:16:07;14.73;;;2.40;;
28934;SDS011;16044;52.726;-2.108;2024-03-23T08:18:34;17.65;;;2.22;;
28934;SDS011;16044;52.726;-2.108;2024-03-23T08:21:01;16.45;;;2.05;;
28934;SDS011;16044;52.726;-2.108;2024-03-23T08:23:33;16.55;;;2.08;;
28934;SDS011;16044;52.726;-2.108;2024-03-23T08:26:01;14.32;;;1.92;;
28934;SDS011;16044;52.726;-2.108;2024-03-23T08:28:29;14.75;;;2.15;;
28934;SDS011;16044;52.726;-2.108;2024-03-23T08:30:56;20.30;;;3.08;;
28934;SDS011;16044;52.726;-2.108;2024-03-23T08:33:23;18.77;;;2.22;;
28934;SDS011;16044;52.726;-2.108;2024-03-23T08:35:53;9.80;;;1.58;;
28934;SDS011;16044;52.726;-2.108;2024-03-23T08:38:21;15.70;;;2.50;;
28934;SDS011;16044;52.726;-2.108;2024-03-23T08:40:55;17.13;;;2.15;;
28934;SDS011;16044;52.726;-2.108;2024-03-23T08:43:23;12.75;;;2.30;;
28934;SDS011;16044;52.726;-2.108;2024-03-23T08:45:49;22.10;;;1.95;;
28934;SDS011;16044;52.726;-2.108;2024-03-23T08:48:16;13.10;;;1.85;;
28934;SDS011;16044;52.726;-2.108;2024-03-23T08:50:42;13.90;;;1.60;;
28934;SDS011;16044;52.726;-2.108;2024-03-23T08:53:09;12.95;;;2.10;;
28934;SDS011;16044;52.726;-2.108;2024-03-23T08:55:35;13.93;;;2.10;;
28934;SDS011;16044;52.726;-2.108;2024-03-23T08:58:04;13.80;;;2.00;;
28934;SDS011;16044;52.726;-2.108;2024-03-23T09:00:31;13.93;;;2.03;;
28934;SDS011;16044;52.726;-2.108;2024-03-23T09:02:57;11.40;;;1.63;;
28934;SDS011;16044;52.726;-2.108;2024-03-23T09:05:24;16.08;;;2.45;;
28934;SDS011;16044;52.726;-2.108;2024-03-23T09:07:50;15.55;;;2.47;;
28934;SDS011;16044;52.726;-2.108;2024-03-23T09:10:17;14.32;;;2.00;;
28934;SDS011;16044;52.726;-2.108;2024-03-23T09:12:43;15.02;;;2.10;;
28934;SDS011;16044;52.726;-2.108;2024-03-23T09:15:12;11.52;;;2.10;;
28934;SDS011;16044;52.726;-2.108;2024-03-23T09:17:39;12.60;;;2.17;;
28934;SDS011;16044;52.726;-2.108;2024-03-23T09:20:06;16.38;;;1.88;;
28934;SDS011;16044;52.726;-2.108;2024-03-23T09:22:34;15.77;;;1.80;;
28934;SDS011;16044;52.726;-2.108;2024-03-23T09:25:00;12.00;;;1.73;;
28934;SDS011;16044;52.726;-2.108;2024-03-23T09:27:27;7.90;;;1.63;;
28934;SDS011;16044;52.726;-2.108;2024-03-23T09:29:53;8.70;;;1.48;;
28934;SDS011;16044;52.726;-2.108;2024-03-23T09:32:22;7.00;;;1.10;;
28934;SDS011;16044;52.726;-2.108;2024-03-23T09:34:49;8.25;;;1.25;;
28934;SDS011;16044;52.726;-2.108;2024-03-23T09:37:15;9.68;;;1.25;;
28934;SDS011;16044;52.726;-2.108;2024-03-23T09:39:42;8.63;;;1.25;;
28934;SDS011;16044;52.726;-2.108;2024-03-23T09:42:08;6.15;;;1.00;;
28934;SDS011;16044;52.726;-2.108;2024-03-23T09:44:35;8.25;;;0.90;;
28934;SDS011;16044;52.726;-2.108;2024-03-23T09:47:01;8.05;;;1.02;;
28934;SDS011;16044;52.726;-2.108;2024-03-23T09:49:31;4.05;;;0.73;;
28934;SDS011;16044;52.726;-2.108;2024-03-23T09:52:00;6.80;;;1.10;;
28934;SDS011;16044;52.726;-2.108;2024-03-23T09:54:27;7.88;;;1.20;;
28934;SDS011;16044;52.726;-2.108;2024-03-23T09:56:53;7.50;;;1.27;;
28934;SDS011;16044;52.726;-2.108;2024-03-23T09:59:20;7.70;;;1.30;;
28934;SDS011;16044;52.726;-2.108;2024-03-23T10:01:46;15.32;;;2.50;;
28934;SDS011;16044;52.726;-2.108;2024-03-23T10:07:13;12.32;;;1.50;;
28934;SDS011;16044;52.726;-2.108;2024-03-23T10:09:41;7.53;;;1.20;;
28934;SDS011;16044;52.726;-2.108;2024-03-23T10:12:08;8.50;;;1.40;;
28934;SDS011;16044;52.726;-2.108;2024-03-23T10:14:36;9.70;;;2.10;;
28934;SDS011;16044;52.726;-2.108;2024-03-23T10:17:12;15.52;;;3.22;;
28934;SDS011;16044;52.726;-2.108;2024-03-23T10:19:46;12.02;;;1.80;;
28934;SDS011;16044;52.726;-2.108;2024-03-23T10:22:16;10.13;;;1.60;;
28934;SDS011;16044;52.726;-2.108;2024-03-23T10:24:44;13.63;;;2.35;;
28934;SDS011;16044;52.726;-2.108;2024-03-23T10:27:13;15.05;;;3.10;;
28934;SDS011;16044;52.726;-2.108;2024-03-23T10:29:42;12.05;;;3.90;;
28934;SDS011;16044;52.726;-2.108;2024-03-23T10:32:08;10.50;;;2.40;;
28934;SDS011;16044;52.726;-2.108;2024-03-23T10:34:36;11.32;;;2.70;;
28934;SDS011;16044;52.726;-2.108;2024-03-23T10:37:05;9.35;;;2.42;;
28934;SDS011;16044;52.726;-2.108;2024-03-23T10:39:33;10.90;;;3.50;;
28934;SDS011;16044;52.726;-2.108;2024-03-23T10:42:02;7.53;;;1.52;;
28934;SDS011;16044;52.726;-2.108;2024-03-23T10:44:30;7.25;;;2.42;;
28934;SDS011;16044;52.726;-2.108;2024-03-23T10:46:57;8.73;;;1.85;;
28934;SDS011;16044;52.726;-2.108;2024-03-23T10:49:28;7.72;;;2.13;;
28934;SDS011;16044;52.726;-2.108;2024-03-23T10:51:57;7.53;;;1.40;;
28934;SDS011;16044;52.726;-2.108;2024-03-23T10:54:26;8.57;;;1.20;;
28934;SDS011;16044;52.726;-2.108;2024-03-23T10:56:55;6.55;;;1.30;;
28934;SDS011;16044;52.726;-2.108;2024-03-23T10:59:37;6.40;;;1.30;;
28934;SDS011;16044;52.726;-2.108;2024-03-23T11:02:04;4.38;;;0.98;;
28934;SDS011;16044;52.726;-2.108;2024-03-23T11:04:32;7.45;;;1.05;;
28934;SDS011;16044;52.726;-2.108;2024-03-23T11:06:59;5.10;;;0.73;;
28934;SDS011;16044;52.726;-2.108;2024-03-23T11:09:42;7.38;;;1.23;;
28934;SDS011;16044;52.726;-2.108;2024-03-23T11:15:02;6.53;;;1.20;;
28934;SDS011;16044;52.726;-2.108;2024-03-23T11:17:31;6.55;;;0.95;;
28934;SDS011;16044;52.726;-2.108;2024-03-23T11:19:58;8.07;;;0.93;;
28934;SDS011;16044;52.726;-2.108;2024-03-23T11:22:38;8.82;;;1.60;;
28934;SDS011;16044;52.726;-2.108;2024-03-23T11:25:18;4.45;;;0.98;;
28934;SDS011;16044;52.726;-2.108;2024-03-23T11:27:47;5.30;;;0.80;;
28934;SDS011;16044;52.726;-2.108;2024-03-23T11:30:15;6.32;;;0.90;;
28934;SDS011;16044;52.726;-2.108;2024-03-23T11:32:44;7.30;;;0.80;;
28934;SDS011;16044;52.726;-2.108;2024-03-23T11:35:24;8.10;;;1.27;;
28934;SDS011;16044;52.726;-2.108;2024-03-23T11:38:04;5.18;;;0.90;;
28934;SDS011;16044;52.726;-2.108;2024-03-23T11:40:35;6.18;;;1.00;;
28934;SDS011;16044;52.726;-2.108;2024-03-23T11:43:04;2.58;;;0.50;;
28934;SDS011;16044;52.726;-2.108;2024-03-23T11:45:36;7.75;;;0.98;;
28934;SDS011;16044;52.726;-2.108;2024-03-23T11:48:05;6.88;;;1.05;;
28934;SDS011;16044;52.726;-2.108;2024-03-23T11:50:33;6.40;;;0.93;;
28934;SDS011;16044;52.726;-2.108;2024-03-23T11:53:11;4.97;;;1.02;;
28934;SDS011;16044;52.726;-2.108;2024-03-23T11:55:44;7.60;;;0.70;;
28934;SDS011;16044;52.726;-2.108;2024-03-23T11:58:13;3.47;;;0.73;;
28934;SDS011;16044;52.726;-2.108;2024-03-23T12:00:41;5.00;;;1.05;;
28934;SDS011;16044;52.726;-2.108;2024-03-23T12:03:16;4.65;;;0.88;;
28934;SDS011;16044;52.726;-2.108;2024-03-23T12:05:47;6.75;;;0.80;;
28934;SDS011;16044;52.726;-2.108;2024-03-23T12:08:22;5.13;;;1.00;;
28934;SDS011;16044;52.726;-2.108;2024-03-23T12:10:53;8.13;;;0.80;;
28934;SDS011;16044;52.726;-2.108;2024-03-23T12:13:31;7.35;;;1.17;;
28934;SDS011;16044;52.726;-2.108;2024-03-23T12:16:08;8.75;;;1.88;;
28934;SDS011;16044;52.726;-2.108;2024-03-23T12:18:36;4.55;;;1.00;;
28934;SDS011;16044;52.726;-2.108;2024-03-23T12:21:03;7.78;;;1.35;;
28934;SDS011;16044;52.726;-2.108;2024-03-23T12:23:30;7.50;;;1.30;;
28934;SDS011;16044;52.726;-2.108;2024-03-23T12:25:59;7.57;;;1.45;;
28934;SDS011;16044;52.726;-2.108;2024-03-23T12:28:26;7.72;;;1.00;;
28934;SDS011;16044;52.726;-2.108;2024-03-23T12:30:52;5.32;;;1.20;;
28934;SDS011;16044;52.726;-2.108;2024-03-23T12:33:19;4.80;;;0.68;;
28934;SDS011;16044;52.726;-2.108;2024-03-23T12:35:46;2.78;;;0.70;;
28934;SDS011;16044;52.726;-2.108;2024-03-23T12:38:13;3.47;;;0.70;;
28934;SDS011;16044;52.726;-2.108;2024-03-23T12:40:39;4.72;;;0.70;;
28934;SDS011;16044;52.726;-2.108;2024-03-23T12:43:09;2.75;;;0.52;;
28934;SDS011;16044;52.726;-2.108;2024-03-23T12:45:35;6.57;;;1.00;;
28934;SDS011;16044;52.726;-2.108;2024-03-23T12:48:02;6.00;;;1.02;;
28934;SDS011;16044;52.726;-2.108;2024-03-23T12:50:29;4.57;;;0.82;;
28934;SDS011;16044;52.726;-2.108;2024-03-23T12:52:55;4.78;;;1.00;;
28934;SDS011;16044;52.726;-2.108;2024-03-23T12:55:22;8.43;;;1.30;;
28934;SDS011;16044;52.726;-2.108;2024-03-23T12:57:48;7.13;;;1.00;;
28934;SDS011;16044;52.726;-2.108;2024-03-23T13:00:18;6.15;;;1.20;;
28934;SDS011;16044;52.726;-2.108;2024-03-23T13:02:44;5.82;;;1.27;;
28934;SDS011;16044;52.726;-2.108;2024-03-23T13:05:11;5.53;;;1.13;;
28934;SDS011;16044;52.726;-2.108;2024-03-23T13:07:37;6.32;;;1.00;;
28934;SDS011;16044;52.726;-2.108;2024-03-23T13:10:04;9.55;;;1.23;;
28934;SDS011;16044;52.726;-2.108;2024-03-23T13:12:32;5.32;;;1.00;;
28934;SDS011;16044;52.726;-2.108;2024-03-23T13:14:58;7.53;;;0.90;;
28934;SDS011;16044;52.726;-2.108;2024-03-23T13:17:28;4.22;;;0.75;;
28934;SDS011;16044;52.726;-2.108;2024-03-23T13:19:55;6.35;;;1.20;;
28934;SDS011;16044;52.726;-2.108;2024-03-23T13:22:21;7.45;;;0.90;;
28934;SDS011;16044;52.726;-2.108;2024-03-23T13:24:48;7.78;;;0.98;;
28934;SDS011;16044;52.726;-2.108;2024-03-23T13:27:14;3.15;;;0.50;;
28934;SDS011;16044;52.726;-2.108;2024-03-23T13:29:41;6.28;;;1.08;;
28934;SDS011;16044;52.726;-2.108;2024-03-23T13:32:07;5.75;;;0.93;;
28934;SDS011;16044;52.726;-2.108;2024-03-23T13:34:36;5.38;;;0.98;;
28934;SDS011;16044;52.726;-2.108;2024-03-23T13:37:04;5.20;;;1.02;;
28934;SDS011;16044;52.726;-2.108;2024-03-23T13:39:30;4.55;;;0.68;;
28934;SDS011;16044;52.726;-2.108;2024-03-23T13:41:57;7.57;;;1.00;;
28934;SDS011;16044;52.726;-2.108;2024-03-23T13:44:23;6.55;;;0.75;;
28934;SDS011;16044;52.726;-2.108;2024-03-23T13:46:50;7.28;;;1.02;;
28934;SDS011;16044;52.726;-2.108;2024-03-23T13:49:26;8.02;;;1.23;;
28934;SDS011;16044;52.726;-2.108;2024-03-23T13:51:56;6.28;;;1.10;;
28934;SDS011;16044;52.726;-2.108;2024-03-23T13:54:24;6.22;;;1.13;;
28934;SDS011;16044;52.726;-2.108;2024-03-23T13:56:50;3.55;;;0.80;;
28934;SDS011;16044;52.726;-2.108;2024-03-23T13:59:17;3.85;;;0.80;;
28934;SDS011;16044;52.726;-2.108;2024-03-23T14:01:44;53.78;;;22.88;;
28934;SDS011;16044;52.726;-2.108;2024-03-23T14:04:11;18.15;;;6.90;;
28934;SDS011;16044;52.726;-2.108;2024-03-23T14:06:37;45.65;;;22.88;;
28934;SDS011;16044;52.726;-2.108;2024-03-23T14:09:07;46.28;;;24.20;;
28934;SDS011;16044;52.726;-2.108;2024-03-23T14:11:34;31.00;;;15.25;;
28934;SDS011;16044;52.726;-2.108;2024-03-23T14:14:01;31.50;;;16.30;;
28934;SDS011;16044;52.726;-2.108;2024-03-23T14:16:27;36.10;;;19.65;;
28934;SDS011;16044;52.726;-2.108;2024-03-23T14:18:53;34.33;;;17.92;;
28934;SDS011;16044;52.726;-2.108;2024-03-23T14:21:20;25.60;;;9.98;;
28934;SDS011;16044;52.726;-2.108;2024-03-23T14:23:46;27.52;;;13.18;;
28934;SDS011;16044;52.726;-2.108;2024-03-23T14:26:15;15.85;;;6.13;;
28934;SDS011;16044;52.726;-2.108;2024-03-23T14:28:42;14.88;;;5.75;;
28934;SDS011;16044;52.726;-2.108;2024-03-23T14:31:08;28.27;;;12.85;;
28934;SDS011;16044;52.726;-2.108;2024-03-23T14:33:36;12.35;;;3.25;;
28934;SDS011;16044;52.726;-2.108;2024-03-23T14:36:03;8.55;;;1.75;;
28934;SDS011;16044;52.726;-2.108;2024-03-23T14:38:31;6.93;;;1.10;;
28934;SDS011;16044;52.726;-2.108;2024-03-23T14:40:58;6.43;;;1.45;;
28934;SDS011;16044;52.726;-2.108;2024-03-23T14:43:27;6.70;;;1.30;;
28934;SDS011;16044;52.726;-2.108;2024-03-23T14:48:39;8.73;;;1.13;;
28934;SDS011;16044;52.726;-2.108;2024-03-23T14:51:06;7.43;;;1.50;;
28934;SDS011;16044;52.726;-2.108;2024-03-23T14:53:34;12.55;;;1.50;;
28934;SDS011;16044;52.726;-2.108;2024-03-23T14:56:02;9.98;;;1.35;;
28934;SDS011;16044;52.726;-2.108;2024-03-23T14:58:32;5.82;;;1.35;;
28934;SDS011;16044;52.726;-2.108;2024-03-23T15:01:00;10.45;;;1.35;;
28934;SDS011;16044;52.726;-2.108;2024-03-23T15:03:27;7.13;;;1.42;;
28934;SDS011;16044;52.726;-2.108;2024-03-23T15:05:54;7.88;;;1.40;;
28934;SDS011;16044;52.726;-2.108;2024-03-23T15:08:21;6.30;;;1.20;;
28934;SDS011;16044;52.726;-2.108;2024-03-23T15:10:48;8.55;;;1.48;;
28934;SDS011;16044;52.726;-2.108;2024-03-23T15:13:15;5.63;;;1.00;;
28934;SDS011;16044;52.726;-2.108;2024-03-23T15:15:44;8.80;;;1.45;;
28934;SDS011;16044;52.726;-2.108;2024-03-23T15:18:11;9.23;;;1.48;;
28934;SDS011;16044;52.726;-2.108;2024-03-23T15:20:38;7.20;;;1.00;;
28934;SDS011;16044;52.726;-2.108;2024-03-23T15:23:05;10.55;;;1.30;;
28934;SDS011;16044;52.726;-2.108;2024-03-23T15:25:31;9.25;;;1.50;;
28934;SDS011;16044;52.726;-2.108;2024-03-23T15:27:58;7.00;;;1.23;;
28934;SDS011;16044;52.726;-2.108;2024-03-23T15:30:24;7.50;;;1.38;;